Holmes Center, Illinois
Current Conditions -  °F | °C
As of 11:15 AM on Sunday 23 Nov 2014 (Local Time) from KC75 Reporting Station
Broken Clouds Broken Clouds  
Wind Chill: 53°   Ceiling: 10000
Heat Index: 53°   Visibility: 10mi
Dew Point: 47°   Wind: 12mph
Humidity: 78%   Direction: 180°S
Pressure: 29.59"   Gusts: NA
Location:  40.915°N, 89.5303°W
Report Text: KC75 231715Z AUTO 18010KT 10SM SCT014 BKN100 12/08 A2959 RMK AO2 T01190082
Loading
Personal Weather Stations






























Interactive Weather Map New forecast layout! Learn more

10-Day Weather Forecast

Advertisements
Track Severe Weather on mobile